createdAt,value
2018-11-28T00:00:50.838Z,90.70
2018-11-28T00:03:18.962Z,90.50
2018-11-28T00:05:47.105Z,90.40
2018-11-28T00:08:15.250Z,90.40
2018-11-28T00:10:43.436Z,90.30
2018-11-28T00:13:11.641Z,90.40
2018-11-28T00:15:39.803Z,90.60
2018-11-28T00:18:07.973Z,90.70
2018-11-28T00:20:36.081Z,90.90
2018-11-28T00:23:04.334Z,90.90
2018-11-28T00:25:32.504Z,91.00
2018-11-28T00:28:00.639Z,91.00
2018-11-28T00:30:28.969Z,91.00
2018-11-28T00:32:57.106Z,91.10
2018-11-28T00:35:25.655Z,91.10
2018-11-28T00:37:53.794Z,91.20
2018-11-28T00:40:23.005Z,91.30
2018-11-28T00:42:51.126Z,91.30
2018-11-28T00:45:22.675Z,91.50
2018-11-28T00:47:50.804Z,91.40
2018-11-28T00:50:21.615Z,91.40
2018-11-28T00:52:49.768Z,91.40
2018-11-28T00:55:18.504Z,91.40
2018-11-28T00:57:46.777Z,91.40
2018-11-28T01:00:16.926Z,91.50
2018-11-28T01:02:45.232Z,91.50
2018-11-28T01:05:13.664Z,91.60
2018-11-28T01:07:42.434Z,91.60
2018-11-28T01:10:16.698Z,91.80
2018-11-28T01:12:45.040Z,91.40
2018-11-28T01:15:13.994Z,91.40
2018-11-28T01:17:42.182Z,91.30
2018-11-28T01:20:13.333Z,91.30
2018-11-28T01:22:41.528Z,91.30
2018-11-28T01:25:10.894Z,91.30
2018-11-28T01:27:39.038Z,91.30
2018-11-28T01:30:10.854Z,91.40
2018-11-28T01:32:39.000Z,91.30
2018-11-28T01:35:09.825Z,91.40
2018-11-28T01:37:38.659Z,91.40
2018-11-28T01:40:09.309Z,91.40
2018-11-28T01:42:37.421Z,91.40
2018-11-28T01:45:06.026Z,91.50
2018-11-28T01:47:34.165Z,91.50
2018-11-28T01:50:02.316Z,91.50
2018-11-28T01:52:30.481Z,91.50
2018-11-28T01:54:58.609Z,91.60
2018-11-28T01:57:26.774Z,91.60
2018-11-28T01:59:55.156Z,91.60
2018-11-28T02:02:23.351Z,91.50
2018-11-28T02:04:51.485Z,91.40
2018-11-28T02:07:19.977Z,91.50
2018-11-28T02:09:48.116Z,91.40
2018-11-28T02:12:16.334Z,91.50
2018-11-28T02:14:44.510Z,91.60
2018-11-28T02:17:12.653Z,91.60
2018-11-28T02:19:40.773Z,91.60
2018-11-28T02:22:08.949Z,91.70
2018-11-28T02:24:37.066Z,91.60
2018-11-28T02:27:05.369Z,91.70
2018-11-28T02:29:33.518Z,91.80
2018-11-28T02:32:01.645Z,91.80
2018-11-28T02:34:29.796Z,91.90
2018-11-28T02:36:57.921Z,91.90
2018-11-28T02:39:26.087Z,91.90
2018-11-28T02:41:54.228Z,92.00
2018-11-28T02:44:22.360Z,91.90
2018-11-28T02:46:50.490Z,91.80
2018-11-28T02:49:18.942Z,91.80
2018-11-28T02:51:47.067Z,91.70
2018-11-28T02:54:15.192Z,91.80
2018-11-28T02:56:43.310Z,91.80
2018-11-28T02:59:11.416Z,91.90
2018-11-28T03:01:39.577Z,92.00
2018-11-28T03:04:07.695Z,92.00
2018-11-28T03:06:35.824Z,92.00
2018-11-28T03:09:05.357Z,92.00
2018-11-28T03:11:33.672Z,91.90
2018-11-28T03:14:01.796Z,91.80
2018-11-28T03:16:30.010Z,91.80
2018-11-28T03:18:58.123Z,91.80
2018-11-28T03:21:26.246Z,91.70
2018-11-28T03:23:54.407Z,91.80
2018-11-28T03:26:22.514Z,91.80
2018-11-28T03:28:50.922Z,91.70
2018-11-28T03:31:19.177Z,91.80
2018-11-28T03:33:47.251Z,91.90
2018-11-28T03:36:15.412Z,91.90
2018-11-28T03:38:43.557Z,92.00
2018-11-28T03:41:11.680Z,92.10
2018-11-28T03:43:39.848Z,92.10
2018-11-28T03:46:07.964Z,92.10
2018-11-28T03:48:36.274Z,92.10
2018-11-28T03:51:04.421Z,92.10
2018-11-28T03:53:32.542Z,92.40
2018-11-28T03:56:00.647Z,92.30
2018-11-28T03:58:29.155Z,92.20
2018-11-28T04:00:57.282Z,92.20
2018-11-28T04:03:25.426Z,92.20
2018-11-28T04:05:53.761Z,92.20
2018-11-28T04:08:21.872Z,92.20
2018-11-28T04:10:49.986Z,92.10
2018-11-28T04:13:18.117Z,92.10
2018-11-28T04:15:46.212Z,92.10
2018-11-28T04:18:14.360Z,91.90
2018-11-28T04:20:42.529Z,92.10
2018-11-28T04:23:10.653Z,92.10
2018-11-28T04:25:38.825Z,92.10
2018-11-28T04:28:06.997Z,92.00
2018-11-28T04:30:35.121Z,92.00
2018-11-28T04:33:03.279Z,91.90
2018-11-28T04:35:31.397Z,91.90
2018-11-28T04:37:59.503Z,91.80
2018-11-28T04:40:27.658Z,91.80
2018-11-28T04:42:55.797Z,91.70
2018-11-28T04:45:24.668Z,91.60
2018-11-28T04:47:53.957Z,91.70
2018-11-28T04:50:22.068Z,91.70
2018-11-28T04:52:50.189Z,91.60
2018-11-28T04:55:19.196Z,91.70
2018-11-28T04:57:47.673Z,91.80
2018-11-28T05:00:22.033Z,91.70
2018-11-28T05:02:50.528Z,91.70
2018-11-28T05:05:18.674Z,91.70
2018-11-28T05:07:47.663Z,91.70
2018-11-28T05:10:16.646Z,91.80
2018-11-28T05:12:44.978Z,91.70
2018-11-28T05:15:14.174Z,91.80
2018-11-28T05:17:42.759Z,91.70
2018-11-28T05:20:13.089Z,91.80
2018-11-28T05:22:41.231Z,91.80
2018-11-28T05:25:12.336Z,91.90
2018-11-28T05:27:40.453Z,92.20
2018-11-28T05:30:12.013Z,91.80
2018-11-28T05:32:40.144Z,91.80
2018-11-28T05:35:10.637Z,91.80
2018-11-28T05:37:38.901Z,91.80
2018-11-28T05:40:09.734Z,91.80
2018-11-28T05:42:38.116Z,91.70
2018-11-28T05:45:10.433Z,91.70
2018-11-28T05:47:38.548Z,91.70
2018-11-28T05:50:09.100Z,91.70
2018-11-28T05:52:37.347Z,91.70
2018-11-28T05:55:07.078Z,91.60
2018-11-28T05:57:35.191Z,91.60
2018-11-28T06:00:03.452Z,91.60
2018-11-28T06:02:31.565Z,91.50
2018-11-28T06:04:59.684Z,91.50
2018-11-28T06:07:28.001Z,91.50
2018-11-28T06:09:56.125Z,91.50
2018-11-28T06:12:24.261Z,91.50
2018-11-28T06:14:52.696Z,91.50
2018-11-28T06:17:20.796Z,91.40
2018-11-28T06:19:49.148Z,91.40
2018-11-28T06:22:17.304Z,91.50
2018-11-28T06:24:45.480Z,91.50
2018-11-28T06:27:13.597Z,91.60
2018-11-28T06:29:41.745Z,91.60
2018-11-28T06:32:09.885Z,91.80
2018-11-28T06:34:37.984Z,91.50
2018-11-28T06:37:06.365Z,91.40
2018-11-28T06:39:34.505Z,91.40
2018-11-28T06:42:02.615Z,91.30
2018-11-28T06:44:30.999Z,91.40
2018-11-28T06:46:59.140Z,91.40
2018-11-28T06:49:27.271Z,91.50
2018-11-28T06:51:55.512Z,91.30
2018-11-28T06:54:23.660Z,91.20
2018-11-28T06:56:51.771Z,91.20
2018-11-28T06:59:19.935Z,91.10
2018-11-28T07:01:48.108Z,91.10
2018-11-28T07:04:16.322Z,91.10
2018-11-28T07:06:44.497Z,91.00
2018-11-28T07:09:12.701Z,90.90
2018-11-28T07:11:40.820Z,90.90
2018-11-28T07:14:09.016Z,90.90
2018-11-28T07:16:37.253Z,91.00
2018-11-28T07:19:08.782Z,90.90
2018-11-28T07:21:37.105Z,90.90
2018-11-28T07:24:06.089Z,91.00
2018-11-28T07:26:34.329Z,91.00
2018-11-28T07:29:02.521Z,91.00
2018-11-28T07:31:30.712Z,91.00
2018-11-28T07:33:59.052Z,91.10
2018-11-28T07:36:27.164Z,91.10
2018-11-28T07:38:55.367Z,91.20
2018-11-28T07:41:25.015Z,91.10
2018-11-28T07:43:53.112Z,91.10
2018-11-28T07:46:21.309Z,91.10
2018-11-28T07:48:52.118Z,91.10
2018-11-28T07:51:20.247Z,91.10
2018-11-28T07:53:48.521Z,91.10
2018-11-28T07:56:16.772Z,91.10
2018-11-28T07:58:44.893Z,91.10
2018-11-28T08:01:13.270Z,91.10
2018-11-28T08:03:41.475Z,91.10
2018-11-28T08:06:09.641Z,91.00
2018-11-28T08:08:38.611Z,90.90
2018-11-28T08:11:07.433Z,90.90
2018-11-28T08:13:35.722Z,90.90
2018-11-28T08:16:03.876Z,90.80
2018-11-28T08:18:32.067Z,90.70
2018-11-28T08:21:01.104Z,90.70
2018-11-28T08:23:29.373Z,90.60
2018-11-28T08:25:57.495Z,90.60
2018-11-28T08:28:25.666Z,90.60
2018-11-28T08:30:53.830Z,90.60
2018-11-28T08:33:21.965Z,90.60
2018-11-28T08:35:50.141Z,90.60
2018-11-28T08:38:18.360Z,90.50
2018-11-28T08:40:46.520Z,90.50
2018-11-28T08:43:14.647Z,90.80
2018-11-28T08:45:42.838Z,90.40
2018-11-28T08:48:15.312Z,90.70
2018-11-28T08:50:43.701Z,90.40
2018-11-28T08:53:11.824Z,90.40
2018-11-28T08:55:39.957Z,90.30
2018-11-28T08:58:08.137Z,90.60
2018-11-28T09:00:36.294Z,90.20
2018-11-28T09:03:04.451Z,90.20
2018-11-28T09:05:32.661Z,90.20
2018-11-28T09:08:00.792Z,90.10
2018-11-28T09:10:28.943Z,90.10
2018-11-28T09:12:57.362Z,90.00
2018-11-28T09:15:27.294Z,90.00
2018-11-28T09:17:55.753Z,89.90
2018-11-28T09:20:23.984Z,90.00
2018-11-28T09:22:52.153Z,89.70
2018-11-28T09:25:20.741Z,89.30
2018-11-28T09:27:51.134Z,89.30
2018-11-28T09:30:19.981Z,89.20
2018-11-28T09:32:49.010Z,88.80
2018-11-28T09:35:17.485Z,88.50
2018-11-28T09:37:46.153Z,87.90
2018-11-28T09:40:15.154Z,88.10
2018-11-28T09:42:43.292Z,88.00
2018-11-28T09:45:12.681Z,87.90
2018-11-28T09:47:40.804Z,87.90
2018-11-28T09:50:12.362Z,87.70
2018-11-28T09:52:40.541Z,87.50
2018-11-28T09:55:10.495Z,87.40
2018-11-28T09:57:38.685Z,87.20
2018-11-28T10:00:10.774Z,87.50
2018-11-28T10:02:39.185Z,86.90
2018-11-28T10:05:10.002Z,87.10
2018-11-28T10:07:38.164Z,87.00
2018-11-28T10:10:09.327Z,86.70
2018-11-28T10:12:37.493Z,86.30
2018-11-28T10:15:11.224Z,86.40
2018-11-28T10:17:39.467Z,86.30
2018-11-28T10:20:08.673Z,86.30
2018-11-28T10:22:36.834Z,86.30
2018-11-28T10:25:05.726Z,86.40
2018-11-28T10:27:33.860Z,86.50
2018-11-28T10:30:02.186Z,86.40
2018-11-28T10:32:30.374Z,86.40
2018-11-28T10:34:58.488Z,86.70
2018-11-28T10:37:26.643Z,86.40
2018-11-28T10:39:54.787Z,86.40
2018-11-28T10:42:22.957Z,86.30
2018-11-28T10:44:51.132Z,86.40
2018-11-28T10:47:19.336Z,86.40
2018-11-28T10:49:47.469Z,86.20
2018-11-28T10:52:15.647Z,86.10
2018-11-28T10:54:43.969Z,85.60
2018-11-28T10:57:12.082Z,85.70
2018-11-28T10:59:40.267Z,85.80
2018-11-28T11:02:13.915Z,85.70
2018-11-28T11:04:47.387Z,85.50
2018-11-28T11:07:20.886Z,85.20
2018-11-28T11:09:54.474Z,85.30
2018-11-28T11:12:28.193Z,85.10
2018-11-28T11:14:56.346Z,85.20
2018-11-28T11:17:24.624Z,85.00
2018-11-28T11:19:52.744Z,84.30
2018-11-28T11:22:20.878Z,84.40
2018-11-28T11:24:49.018Z,84.00
2018-11-28T11:29:51.851Z,84.20
2018-11-28T11:32:20.061Z,84.20
2018-11-28T11:34:48.468Z,83.40
2018-11-28T11:37:16.592Z,84.00
2018-11-28T11:39:44.876Z,83.30
2018-11-28T11:42:13.028Z,83.60
2018-11-28T11:44:41.492Z,83.00
2018-11-28T11:47:09.618Z,83.10
2018-11-28T11:49:37.766Z,83.10
2018-11-28T11:52:05.969Z,82.60
2018-11-28T11:54:35.118Z,82.70
2018-11-28T11:57:03.367Z,82.90
2018-11-28T11:59:31.519Z,82.90
2018-11-28T12:01:59.655Z,83.80
2018-11-28T12:04:27.825Z,83.20
2018-11-28T12:06:55.984Z,82.80
2018-11-28T12:09:24.143Z,82.70
2018-11-28T12:11:52.274Z,82.10
2018-11-28T12:14:20.465Z,81.90
2018-11-28T12:16:48.610Z,81.60
2018-11-28T12:19:16.738Z,81.30
2018-11-28T12:21:44.906Z,81.20
2018-11-28T12:24:13.124Z,81.10
2018-11-28T12:26:41.273Z,80.90
2018-11-28T12:29:09.504Z,80.40
2018-11-28T12:31:37.723Z,80.50
2018-11-28T12:34:06.097Z,81.20
2018-11-28T12:36:34.300Z,80.60
2018-11-28T12:39:02.461Z,80.30
2018-11-28T12:41:30.631Z,80.50
2018-11-28T12:43:58.893Z,80.40
2018-11-28T12:46:27.054Z,80.40
2018-11-28T12:48:55.431Z,80.70
2018-11-28T12:51:23.592Z,80.70
2018-11-28T12:53:51.741Z,80.70
2018-11-28T12:56:19.886Z,80.80
2018-11-28T12:58:48.084Z,80.80
2018-11-28T13:01:16.421Z,80.90
2018-11-28T13:03:44.562Z,80.00
2018-11-28T13:06:12.719Z,80.00
2018-11-28T13:08:41.133Z,79.80
2018-11-28T13:11:09.265Z,80.00
2018-11-28T13:13:37.443Z,79.60
2018-11-28T13:16:06.288Z,80.00
2018-11-28T13:18:34.438Z,80.50
2018-11-28T13:21:09.389Z,80.90
2018-11-28T13:23:37.133Z,81.50
2018-11-28T13:26:05.798Z,81.40
2018-11-28T13:28:34.209Z,81.60
2018-11-28T13:31:02.346Z,81.70
2018-11-28T13:33:30.482Z,82.00
2018-11-28T13:35:58.943Z,82.50
2018-11-28T13:38:27.076Z,82.50
2018-11-28T13:40:55.437Z,82.40
2018-11-28T13:43:23.780Z,82.30
2018-11-28T13:45:51.919Z,82.30
2018-11-28T13:48:20.055Z,82.30
2018-11-28T13:50:48.207Z,82.20
2018-11-28T13:53:17.263Z,82.00
2018-11-28T13:56:57.292Z,82.20
2018-11-28T13:58:22.160Z,82.00
2018-11-28T14:00:50.353Z,82.30
2018-11-28T14:03:18.504Z,82.30
2018-11-28T14:05:46.677Z,82.60
2018-11-28T14:08:14.879Z,82.30
2018-11-28T14:10:43.044Z,82.00
2018-11-28T14:13:11.168Z,82.30
2018-11-28T14:15:39.256Z,82.50
2018-11-28T14:18:15.217Z,82.70
2018-11-28T14:20:43.667Z,82.90
2018-11-28T14:23:11.829Z,83.20
2018-11-28T14:25:40.021Z,83.30
2018-11-28T14:28:08.452Z,83.40
2018-11-28T14:30:37.270Z,83.50
2018-11-28T14:33:05.441Z,83.50
2018-11-28T14:35:33.808Z,83.60
2018-11-28T14:38:01.952Z,83.70
2018-11-28T14:40:30.139Z,83.70
2018-11-28T14:42:59.295Z,83.70
2018-11-28T14:45:28.293Z,83.90
2018-11-28T14:47:56.458Z,84.10
2018-11-28T14:50:25.634Z,84.20
2018-11-28T14:52:54.837Z,84.60
2018-11-28T14:55:25.031Z,84.70
2018-11-28T14:57:56.211Z,85.00
2018-11-28T15:00:26.404Z,85.30
2018-11-28T15:03:01.006Z,85.40
2018-11-28T15:05:38.542Z,85.80
2018-11-28T15:08:09.985Z,85.80
2018-11-28T15:10:42.052Z,86.00
2018-11-28T15:13:10.155Z,86.20
2018-11-28T15:15:38.453Z,86.70
2018-11-28T15:18:06.611Z,87.30
2018-11-28T15:20:34.804Z,88.20
2018-11-28T15:23:03.045Z,88.30
2018-11-28T15:25:31.211Z,88.60
2018-11-28T15:27:59.421Z,88.90
2018-11-28T15:30:27.569Z,89.50
2018-11-28T15:32:56.657Z,89.40
2018-11-28T15:35:25.557Z,90.00
2018-11-28T15:37:54.738Z,90.00
2018-11-28T15:40:23.309Z,90.10
2018-11-28T15:42:52.395Z,90.40
2018-11-28T15:45:22.143Z,90.60
2018-11-28T15:47:51.555Z,91.00
2018-11-28T15:50:20.673Z,91.30
2018-11-28T15:52:49.775Z,91.60
2018-11-28T15:55:18.808Z,92.10
2018-11-28T15:57:47.777Z,92.40
2018-11-28T16:00:22.431Z,92.50
2018-11-28T16:02:51.119Z,92.60
2018-11-28T16:05:19.261Z,92.50
2018-11-28T16:07:47.404Z,92.50
2018-11-28T16:10:21.229Z,92.50
2018-11-28T16:12:49.904Z,92.50
2018-11-28T16:15:19.551Z,92.60
2018-11-28T16:17:47.700Z,92.50
2018-11-28T16:20:17.047Z,92.30
2018-11-28T16:22:45.978Z,92.20
2018-11-28T16:25:14.223Z,92.20
2018-11-28T16:27:42.493Z,92.60
2018-11-28T16:30:13.718Z,92.30
2018-11-28T16:32:42.748Z,92.40
2018-11-28T16:35:12.111Z,92.70
2018-11-28T16:37:40.411Z,92.80
2018-11-28T16:40:09.926Z,93.00
2018-11-28T16:42:38.100Z,93.30
2018-11-28T16:45:24.197Z,93.60
2018-11-28T16:47:52.357Z,93.80
2018-11-28T16:50:20.888Z,94.00
2018-11-28T16:52:49.226Z,94.30
2018-11-28T16:55:17.769Z,94.40
2018-11-28T16:57:49.287Z,94.60
2018-11-28T17:00:22.140Z,94.70
2018-11-28T17:02:50.693Z,94.90
2018-11-28T17:05:20.832Z,94.80
2018-11-28T17:07:49.448Z,94.90
2018-11-28T17:10:19.627Z,94.90
2018-11-28T17:12:49.987Z,95.00
2018-11-28T17:15:19.043Z,95.00
2018-11-28T17:17:47.155Z,95.00
2018-11-28T17:20:20.363Z,95.00
2018-11-28T17:22:49.189Z,95.00
2018-11-28T17:25:18.700Z,95.00
2018-11-28T17:27:46.847Z,95.10
2018-11-28T17:30:18.725Z,95.20
2018-11-28T17:32:44.441Z,95.40
2018-11-28T17:35:13.525Z,95.60
2018-11-28T17:37:41.591Z,95.60
2018-11-28T17:40:25.798Z,95.60
2018-11-28T17:42:56.016Z,95.60
2018-11-28T17:45:24.249Z,95.80
2018-11-28T17:47:52.424Z,95.90
2018-11-28T17:50:21.664Z,95.90
2018-11-28T17:52:56.321Z,96.00
2018-11-28T17:55:25.132Z,96.00
2018-11-28T17:57:53.415Z,96.10
2018-11-28T18:00:21.629Z,96.10
2018-11-28T18:02:49.738Z,96.00
2018-11-28T18:05:17.852Z,96.00
2018-11-28T18:07:46.114Z,96.00
2018-11-28T18:10:16.448Z,95.90
2018-11-28T18:12:56.032Z,95.80
2018-11-28T18:15:24.176Z,95.70
2018-11-28T18:17:53.584Z,95.70
2018-11-28T18:20:22.053Z,95.60
2018-11-28T18:22:50.156Z,95.40
2018-11-28T18:25:18.348Z,95.40
2018-11-28T18:27:46.518Z,95.40
2018-11-28T18:30:14.623Z,95.30
2018-11-28T18:32:42.744Z,95.30
2018-11-28T18:35:11.392Z,95.20
2018-11-28T18:37:39.522Z,95.10
2018-11-28T18:40:10.933Z,95.10
2018-11-28T18:42:39.410Z,95.00
2018-11-28T18:45:13.020Z,94.80
2018-11-28T18:47:41.172Z,94.80
2018-11-28T18:50:10.361Z,94.70
2018-11-28T18:52:38.548Z,94.80
2018-11-28T18:55:16.775Z,94.70
2018-11-28T18:57:42.784Z,95.00
2018-11-28T19:00:13.658Z,94.80
2018-11-28T19:02:42.696Z,94.80
2018-11-28T19:05:10.095Z,95.10
2018-11-28T19:07:38.217Z,94.80
2018-11-28T19:10:10.481Z,94.80
2018-11-28T19:12:38.604Z,94.60
2018-11-28T19:15:10.408Z,94.60
2018-11-28T19:17:38.529Z,94.60
2018-11-28T19:20:11.844Z,94.70
2018-11-28T19:22:39.941Z,94.90
2018-11-28T19:25:09.461Z,94.90
2018-11-28T19:27:43.234Z,95.10
2018-11-28T19:30:46.640Z,95.10
2018-11-28T19:33:15.173Z,95.20
2018-11-28T19:35:43.270Z,95.20
2018-11-28T19:38:13.661Z,95.20
2018-11-28T19:40:57.613Z,95.20
2018-11-28T19:43:25.761Z,95.30
2018-11-28T19:45:53.912Z,95.20
2018-11-28T19:48:22.127Z,95.20
2018-11-28T19:50:50.259Z,95.20
2018-11-28T19:53:18.425Z,95.20
2018-11-28T19:55:46.577Z,95.10
2018-11-28T19:58:14.729Z,95.20
2018-11-28T20:00:45.064Z,95.00
2018-11-28T20:03:13.476Z,95.10
2018-11-28T20:05:41.608Z,95.20
2018-11-28T20:08:09.729Z,95.10
2018-11-28T20:10:37.898Z,95.10
2018-11-28T20:13:07.777Z,95.10
2018-11-28T20:15:36.012Z,95.20
2018-11-28T20:18:04.453Z,95.30
2018-11-28T20:20:32.565Z,95.30
2018-11-28T20:23:00.722Z,95.20
2018-11-28T20:25:28.912Z,95.20
2018-11-28T20:27:58.527Z,95.20
2018-11-28T20:30:36.455Z,95.10
2018-11-28T20:33:04.464Z,94.90
2018-11-28T20:35:32.573Z,94.90
2018-11-28T20:38:00.731Z,94.90
2018-11-28T20:40:28.961Z,94.90
2018-11-28T20:42:57.174Z,94.80
2018-11-28T20:45:25.475Z,94.90
2018-11-28T20:47:54.623Z,94.80
2018-11-28T20:50:25.518Z,94.80
2018-11-28T20:52:56.278Z,94.70
2018-11-28T20:55:24.376Z,94.80
2018-11-28T20:57:52.492Z,94.80
2018-11-28T21:00:22.081Z,94.80
2018-11-28T21:02:50.329Z,94.80
2018-11-28T21:05:18.473Z,94.80
2018-11-28T21:07:46.617Z,94.70
2018-11-28T21:10:21.166Z,94.60
2018-11-28T21:12:49.297Z,94.50
2018-11-28T21:15:17.472Z,94.40
2018-11-28T21:17:46.311Z,94.50
2018-11-28T21:20:17.549Z,94.40
2018-11-28T21:22:49.341Z,94.40
2018-11-28T21:25:17.460Z,94.40
2018-11-28T21:27:45.652Z,94.40
2018-11-28T21:30:15.646Z,94.40
2018-11-28T21:32:44.173Z,94.40
2018-11-28T21:35:16.365Z,94.30
2018-11-28T21:37:44.520Z,94.30
2018-11-28T21:40:12.816Z,94.20
2018-11-28T21:42:41.231Z,94.10
2018-11-28T21:45:11.125Z,94.00
2018-11-28T21:47:39.473Z,94.00
2018-11-28T21:50:11.533Z,94.00
2018-11-28T21:52:39.679Z,94.00
2018-11-28T21:55:10.150Z,93.90
2018-11-28T21:57:38.320Z,93.90
2018-11-28T22:00:12.175Z,93.90
2018-11-28T22:02:40.368Z,93.90
2018-11-28T22:05:10.148Z,93.80
2018-11-28T22:07:38.314Z,93.80
2018-11-28T22:10:09.152Z,93.80
2018-11-28T22:12:37.532Z,94.10
2018-11-28T22:15:07.828Z,93.90
2018-11-28T22:17:36.056Z,93.90
2018-11-28T22:20:04.563Z,93.90
2018-11-28T22:22:32.740Z,93.80
2018-11-28T22:25:00.903Z,93.80
2018-11-28T22:27:29.065Z,93.80
2018-11-28T22:29:57.217Z,93.80
2018-11-28T22:32:25.409Z,93.80
2018-11-28T22:34:53.767Z,93.90
2018-11-28T22:37:21.884Z,93.80
2018-11-28T22:39:49.995Z,93.90
2018-11-28T22:42:18.166Z,93.90
2018-11-28T22:44:46.335Z,93.90
2018-11-28T22:47:14.485Z,93.80
2018-11-28T22:49:42.686Z,93.80
2018-11-28T22:52:10.882Z,93.70
2018-11-28T22:54:39.095Z,93.60
2018-11-28T22:57:07.253Z,93.70
2018-11-28T22:59:35.708Z,93.60
2018-11-28T23:02:40.627Z,93.60
2018-11-28T23:05:08.921Z,93.60
2018-11-28T23:07:37.068Z,93.50
2018-11-28T23:10:05.320Z,93.80
2018-11-28T23:12:33.473Z,93.50
2018-11-28T23:15:01.846Z,93.50
2018-11-28T23:17:29.970Z,93.50
2018-11-28T23:19:58.124Z,93.50
2018-11-28T23:22:26.252Z,93.40
2018-11-28T23:24:54.357Z,93.50
2018-11-28T23:27:22.548Z,93.50
2018-11-28T23:29:50.676Z,93.50
2018-11-28T23:32:18.807Z,93.60
2018-11-28T23:34:47.032Z,93.70
2018-11-28T23:37:15.188Z,93.60
2018-11-28T23:39:43.306Z,93.60
2018-11-28T23:42:11.765Z,93.60
2018-11-28T23:44:39.901Z,93.70
2018-11-28T23:47:08.057Z,93.60
2018-11-28T23:49:36.464Z,93.60
2018-11-28T23:52:04.739Z,93.60
2018-11-28T23:54:32.884Z,93.60
2018-11-28T23:57:01.029Z,93.60
2018-11-28T23:59:29.158Z,93.70
